Huvudsida
METAR-TAF:

METAR-TAF

Flygplatser :

Linköping City Airport

Linköping, Sverige

latitud: 58-24N, longitud: 015-41E, höjd: 52 m

Aktuellt väderrapport

Denna rapport gjordes för 23 minuter sedan, klockan 00:50 UTC
Vind 6 kt från väst/sydväst
Temperatur 9°C
Fuktighet 49%
Tryck 1025 hPa
Sikt 10 km eller mer

METAR: ESSL 210050Z AUTO 25006KT 9999 NCD 09/M01 Q1025

Tid: 03:13 (01:13 UTC)

Väderprognos

Denna rapport gjordes för 5 timmar och 43 minuter sedan, klockan 19:30 UTC
Prognos gäller från 20 kl. 20 UTC till 20 kl. 22 UTC
Vind 4 kt från väst
Sikt 10 km eller mer
Inga moln under 1 500 m eller inga cumulonimbus

TAF: ESSL 201930Z 2020/2022 27004KT CAVOK

Aktuella väderrapporter och prognoser från 4000 flygplatser (METAR- och TAF-rapporter).

De tillgängliga stationerna syns som gula och röda prickar på kartan.

För musen över prickarna för att se namnen på stationerna.

Klicka sedan för att få väderrapporter och prognoser.

För att ändra kartan: Klicka på de gröna knapparna med ett svart kors på för att zooma in; den gröna knappen med ett streck på för att zooma ut; eller på de gröna pilarna för angränsande kartor.


METAR-TAF: